sensor_id;sensor_type;location;lat;lon;timestamp;P1;durP1;ratioP1;P2;durP2;ratioP2
29280;SDS011;25048;49.590;11.026;2022-12-18T00:01:25;33.50;;;14.90;;
29280;SDS011;25048;49.590;11.026;2022-12-18T00:03:57;44.73;;;16.20;;
29280;SDS011;25048;49.590;11.026;2022-12-18T00:06:27;46.77;;;16.80;;
29280;SDS011;25048;49.590;11.026;2022-12-18T00:08:56;38.50;;;14.30;;
29280;SDS011;25048;49.590;11.026;2022-12-18T00:11:25;26.37;;;11.50;;
29280;SDS011;25048;49.590;11.026;2022-12-18T00:13:54;36.63;;;12.33;;
29280;SDS011;25048;49.590;11.026;2022-12-18T00:16:23;40.37;;;13.13;;
29280;SDS011;25048;49.590;11.026;2022-12-18T00:18:53;47.83;;;14.10;;
29280;SDS011;25048;49.590;11.026;2022-12-18T00:21:22;39.07;;;13.50;;
29280;SDS011;25048;49.590;11.026;2022-12-18T00:23:50;35.27;;;12.83;;
29280;SDS011;25048;49.590;11.026;2022-12-18T00:26:25;32.37;;;14.33;;
29280;SDS011;25048;49.590;11.026;2022-12-18T00:28:55;43.33;;;14.40;;
29280;SDS011;25048;49.590;11.026;2022-12-18T00:31:28;38.33;;;14.43;;
29280;SDS011;25048;49.590;11.026;2022-12-18T00:33:56;44.23;;;15.00;;
29280;SDS011;25048;49.590;11.026;2022-12-18T00:36:26;37.47;;;15.33;;
29280;SDS011;25048;49.590;11.026;2022-12-18T00:38:56;37.43;;;13.87;;
29280;SDS011;25048;49.590;11.026;2022-12-18T00:41:24;43.00;;;15.13;;
29280;SDS011;25048;49.590;11.026;2022-12-18T00:44:11;35.77;;;14.43;;
29280;SDS011;25048;49.590;11.026;2022-12-18T00:46:40;46.20;;;13.97;;
29280;SDS011;25048;49.590;11.026;2022-12-18T00:49:12;43.83;;;14.97;;
29280;SDS011;25048;49.590;11.026;2022-12-18T00:51:41;41.27;;;15.17;;
29280;SDS011;25048;49.590;11.026;2022-12-18T00:54:09;42.27;;;14.57;;
29280;SDS011;25048;49.590;11.026;2022-12-18T00:56:37;40.83;;;13.83;;
29280;SDS011;25048;49.590;11.026;2022-12-18T00:59:05;37.27;;;13.77;;
29280;SDS011;25048;49.590;11.026;2022-12-18T01:01:33;40.67;;;13.57;;
29280;SDS011;25048;49.590;11.026;2022-12-18T01:04:02;49.43;;;15.23;;
29280;SDS011;25048;49.590;11.026;2022-12-18T01:06:30;40.23;;;14.97;;
29280;SDS011;25048;49.590;11.026;2022-12-18T01:08:57;36.43;;;13.90;;
29280;SDS011;25048;49.590;11.026;2022-12-18T01:11:25;37.67;;;13.13;;
29280;SDS011;25048;49.590;11.026;2022-12-18T01:13:54;35.10;;;12.87;;
29280;SDS011;25048;49.590;11.026;2022-12-18T01:16:22;46.50;;;13.87;;
29280;SDS011;25048;49.590;11.026;2022-12-18T01:18:53;44.07;;;15.17;;
29280;SDS011;25048;49.590;11.026;2022-12-18T01:21:22;40.20;;;14.10;;
29280;SDS011;25048;49.590;11.026;2022-12-18T01:23:51;36.30;;;13.80;;
29280;SDS011;25048;49.590;11.026;2022-12-18T01:26:20;38.13;;;14.17;;
29280;SDS011;25048;49.590;11.026;2022-12-18T01:28:48;40.80;;;16.10;;
29280;SDS011;25048;49.590;11.026;2022-12-18T01:31:17;34.13;;;11.17;;
29280;SDS011;25048;49.590;11.026;2022-12-18T01:33:49;46.17;;;13.93;;
29280;SDS011;25048;49.590;11.026;2022-12-18T01:36:28;38.47;;;14.40;;
29280;SDS011;25048;49.590;11.026;2022-12-18T01:38:59;42.20;;;14.07;;
29280;SDS011;25048;49.590;11.026;2022-12-18T01:41:28;25.97;;;11.53;;
29280;SDS011;25048;49.590;11.026;2022-12-18T01:47:24;31.37;;;12.10;;
29280;SDS011;25048;49.590;11.026;2022-12-18T01:49:49;36.10;;;13.03;;
29280;SDS011;25048;49.590;11.026;2022-12-18T01:52:17;42.73;;;13.43;;
29280;SDS011;25048;49.590;11.026;2022-12-18T01:54:46;35.97;;;13.00;;
29280;SDS011;25048;49.590;11.026;2022-12-18T01:57:16;30.33;;;12.47;;
29280;SDS011;25048;49.590;11.026;2022-12-18T01:59:45;43.17;;;12.30;;
29280;SDS011;25048;49.590;11.026;2022-12-18T02:02:15;38.70;;;13.10;;
29280;SDS011;25048;49.590;11.026;2022-12-18T02:04:44;40.40;;;14.30;;
29280;SDS011;25048;49.590;11.026;2022-12-18T02:10:06;36.77;;;11.70;;
29280;SDS011;25048;49.590;11.026;2022-12-18T02:17:24;32.37;;;13.10;;
29280;SDS011;25048;49.590;11.026;2022-12-18T02:20:36;28.37;;;11.33;;
29280;SDS011;25048;49.590;11.026;2022-12-18T02:22:40;30.60;;;11.23;;
29280;SDS011;25048;49.590;11.026;2022-12-18T02:28:28;29.67;;;11.17;;
29280;SDS011;25048;49.590;11.026;2022-12-18T02:30:59;28.67;;;11.37;;
29280;SDS011;25048;49.590;11.026;2022-12-18T02:33:29;38.83;;;12.23;;
29280;SDS011;25048;49.590;11.026;2022-12-18T02:35:57;33.00;;;11.67;;
29280;SDS011;25048;49.590;11.026;2022-12-18T02:38:26;35.93;;;12.10;;
29280;SDS011;25048;49.590;11.026;2022-12-18T02:40:56;35.90;;;12.27;;
29280;SDS011;25048;49.590;11.026;2022-12-18T02:43:27;29.30;;;11.87;;
29280;SDS011;25048;49.590;11.026;2022-12-18T02:45:57;29.27;;;11.03;;
29280;SDS011;25048;49.590;11.026;2022-12-18T02:48:32;32.70;;;11.53;;
29280;SDS011;25048;49.590;11.026;2022-12-18T02:51:03;33.67;;;12.53;;
29280;SDS011;25048;49.590;11.026;2022-12-18T02:53:49;33.57;;;11.43;;
29280;SDS011;25048;49.590;11.026;2022-12-18T02:58:55;28.17;;;11.83;;
29280;SDS011;25048;49.590;11.026;2022-12-18T03:01:39;32.57;;;11.80;;
29280;SDS011;25048;49.590;11.026;2022-12-18T03:04:12;27.50;;;10.57;;
29280;SDS011;25048;49.590;11.026;2022-12-18T03:06:54;31.80;;;10.97;;
29280;SDS011;25048;49.590;11.026;2022-12-18T03:09:35;33.23;;;11.07;;
29280;SDS011;25048;49.590;11.026;2022-12-18T03:12:09;27.97;;;11.53;;
29280;SDS011;25048;49.590;11.026;2022-12-18T03:14:54;26.53;;;10.30;;
29280;SDS011;25048;49.590;11.026;2022-12-18T03:17:23;31.17;;;12.00;;
29280;SDS011;25048;49.590;11.026;2022-12-18T03:19:53;42.00;;;11.93;;
29280;SDS011;25048;49.590;11.026;2022-12-18T03:22:23;43.47;;;13.83;;
29280;SDS011;25048;49.590;11.026;2022-12-18T03:24:53;36.23;;;12.77;;
29280;SDS011;25048;49.590;11.026;2022-12-18T03:27:23;30.17;;;12.67;;
29280;SDS011;25048;49.590;11.026;2022-12-18T03:29:54;27.37;;;11.73;;
29280;SDS011;25048;49.590;11.026;2022-12-18T03:32:31;36.17;;;11.73;;
29280;SDS011;25048;49.590;11.026;2022-12-18T03:35:02;34.77;;;12.50;;
29280;SDS011;25048;49.590;11.026;2022-12-18T03:37:32;35.00;;;10.77;;
29280;SDS011;25048;49.590;11.026;2022-12-18T03:40:00;24.77;;;10.03;;
29280;SDS011;25048;49.590;11.026;2022-12-18T03:45:27;31.03;;;11.37;;
29280;SDS011;25048;49.590;11.026;2022-12-18T03:56:01;34.50;;;11.50;;
29280;SDS011;25048;49.590;11.026;2022-12-18T03:58:31;34.77;;;11.10;;
29280;SDS011;25048;49.590;11.026;2022-12-18T04:01:02;30.87;;;12.03;;
29280;SDS011;25048;49.590;11.026;2022-12-18T04:03:31;27.50;;;10.67;;
29280;SDS011;25048;49.590;11.026;2022-12-18T04:06:00;41.30;;;14.60;;
29280;SDS011;25048;49.590;11.026;2022-12-18T04:08:29;40.17;;;13.80;;
29280;SDS011;25048;49.590;11.026;2022-12-18T04:10:58;31.43;;;12.63;;
29280;SDS011;25048;49.590;11.026;2022-12-18T04:13:31;36.30;;;12.27;;
29280;SDS011;25048;49.590;11.026;2022-12-18T04:16:00;34.60;;;12.93;;
29280;SDS011;25048;49.590;11.026;2022-12-18T04:18:27;38.17;;;14.03;;
29280;SDS011;25048;49.590;11.026;2022-12-18T04:20:55;40.40;;;13.67;;
29280;SDS011;25048;49.590;11.026;2022-12-18T04:23:22;43.17;;;14.27;;
29280;SDS011;25048;49.590;11.026;2022-12-18T04:25:50;37.03;;;15.03;;
29280;SDS011;25048;49.590;11.026;2022-12-18T04:28:17;47.13;;;15.23;;
29280;SDS011;25048;49.590;11.026;2022-12-18T04:30:48;38.57;;;16.33;;
29280;SDS011;25048;49.590;11.026;2022-12-18T04:33:18;45.77;;;16.00;;
29280;SDS011;25048;49.590;11.026;2022-12-18T04:35:46;53.93;;;17.13;;
29280;SDS011;25048;49.590;11.026;2022-12-18T04:38:13;42.90;;;16.20;;
29280;SDS011;25048;49.590;11.026;2022-12-18T04:40:41;45.03;;;15.67;;
29280;SDS011;25048;49.590;11.026;2022-12-18T04:43:09;45.23;;;16.73;;
29280;SDS011;25048;49.590;11.026;2022-12-18T04:45:36;54.10;;;18.20;;
29280;SDS011;25048;49.590;11.026;2022-12-18T04:48:04;49.30;;;16.27;;
29280;SDS011;25048;49.590;11.026;2022-12-18T04:50:32;43.83;;;14.00;;
29280;SDS011;25048;49.590;11.026;2022-12-18T04:52:59;45.10;;;15.37;;
29280;SDS011;25048;49.590;11.026;2022-12-18T04:55:27;34.97;;;14.53;;
29280;SDS011;25048;49.590;11.026;2022-12-18T04:57:54;43.00;;;14.33;;
29280;SDS011;25048;49.590;11.026;2022-12-18T05:00:22;39.67;;;14.60;;
29280;SDS011;25048;49.590;11.026;2022-12-18T05:02:49;40.67;;;15.07;;
29280;SDS011;25048;49.590;11.026;2022-12-18T05:05:17;45.43;;;16.30;;
29280;SDS011;25048;49.590;11.026;2022-12-18T05:07:44;43.30;;;14.10;;
29280;SDS011;25048;49.590;11.026;2022-12-18T05:10:12;43.43;;;13.40;;
29280;SDS011;25048;49.590;11.026;2022-12-18T05:12:39;38.77;;;15.27;;
29280;SDS011;25048;49.590;11.026;2022-12-18T05:15:09;45.27;;;17.00;;
29280;SDS011;25048;49.590;11.026;2022-12-18T05:17:36;41.37;;;15.97;;
29280;SDS011;25048;49.590;11.026;2022-12-18T05:20:04;45.47;;;15.10;;
29280;SDS011;25048;49.590;11.026;2022-12-18T05:22:31;41.20;;;14.73;;
29280;SDS011;25048;49.590;11.026;2022-12-18T05:24:59;34.43;;;15.10;;
29280;SDS011;25048;49.590;11.026;2022-12-18T05:27:26;38.43;;;14.47;;
29280;SDS011;25048;49.590;11.026;2022-12-18T05:29:54;50.33;;;16.57;;
29280;SDS011;25048;49.590;11.026;2022-12-18T05:32:21;42.13;;;12.10;;
29280;SDS011;25048;49.590;11.026;2022-12-18T05:34:49;38.13;;;14.93;;
29280;SDS011;25048;49.590;11.026;2022-12-18T05:37:16;41.77;;;14.57;;
29280;SDS011;25048;49.590;11.026;2022-12-18T05:39:44;40.50;;;13.10;;
29280;SDS011;25048;49.590;11.026;2022-12-18T05:42:11;37.83;;;14.83;;
29280;SDS011;25048;49.590;11.026;2022-12-18T05:44:39;36.70;;;12.73;;
29280;SDS011;25048;49.590;11.026;2022-12-18T05:47:06;39.77;;;13.67;;
29280;SDS011;25048;49.590;11.026;2022-12-18T05:49:34;40.80;;;15.03;;
29280;SDS011;25048;49.590;11.026;2022-12-18T05:52:01;31.43;;;12.27;;
29280;SDS011;25048;49.590;11.026;2022-12-18T05:54:29;51.43;;;14.10;;
29280;SDS011;25048;49.590;11.026;2022-12-18T05:56:57;40.23;;;13.40;;
29280;SDS011;25048;49.590;11.026;2022-12-18T05:59:25;41.93;;;13.13;;
29280;SDS011;25048;49.590;11.026;2022-12-18T06:01:52;28.90;;;12.57;;
29280;SDS011;25048;49.590;11.026;2022-12-18T06:04:20;32.37;;;12.97;;
29280;SDS011;25048;49.590;11.026;2022-12-18T06:06:47;36.83;;;13.30;;
29280;SDS011;25048;49.590;11.026;2022-12-18T06:09:15;36.63;;;12.80;;
29280;SDS011;25048;49.590;11.026;2022-12-18T06:11:42;34.80;;;12.60;;
29280;SDS011;25048;49.590;11.026;2022-12-18T06:14:09;36.60;;;13.30;;
29280;SDS011;25048;49.590;11.026;2022-12-18T06:16:37;31.13;;;12.73;;
29280;SDS011;25048;49.590;11.026;2022-12-18T06:19:05;38.60;;;12.90;;
29280;SDS011;25048;49.590;11.026;2022-12-18T06:21:32;31.70;;;11.47;;
29280;SDS011;25048;49.590;11.026;2022-12-18T06:24:00;35.73;;;12.73;;
29280;SDS011;25048;49.590;11.026;2022-12-18T06:26:28;36.53;;;12.50;;
29280;SDS011;25048;49.590;11.026;2022-12-18T06:28:55;32.87;;;12.63;;
29280;SDS011;25048;49.590;11.026;2022-12-18T06:31:23;34.27;;;11.67;;
29280;SDS011;25048;49.590;11.026;2022-12-18T06:33:51;44.43;;;13.77;;
29280;SDS011;25048;49.590;11.026;2022-12-18T06:36:18;46.70;;;16.07;;
29280;SDS011;25048;49.590;11.026;2022-12-18T06:38:46;45.10;;;15.63;;
29280;SDS011;25048;49.590;11.026;2022-12-18T06:41:19;45.10;;;12.93;;
29280;SDS011;25048;49.590;11.026;2022-12-18T06:43:47;33.60;;;12.83;;
29280;SDS011;25048;49.590;11.026;2022-12-18T06:46:15;34.83;;;12.40;;
29280;SDS011;25048;49.590;11.026;2022-12-18T06:48:42;41.00;;;13.90;;
29280;SDS011;25048;49.590;11.026;2022-12-18T06:51:11;44.03;;;12.97;;
29280;SDS011;25048;49.590;11.026;2022-12-18T06:53:40;41.70;;;15.17;;
29280;SDS011;25048;49.590;11.026;2022-12-18T06:56:08;41.13;;;13.80;;
29280;SDS011;25048;49.590;11.026;2022-12-18T06:58:35;40.97;;;13.63;;
29280;SDS011;25048;49.590;11.026;2022-12-18T07:01:04;45.07;;;13.97;;
29280;SDS011;25048;49.590;11.026;2022-12-18T07:03:33;39.40;;;13.60;;
29280;SDS011;25048;49.590;11.026;2022-12-18T07:06:01;41.87;;;13.57;;
29280;SDS011;25048;49.590;11.026;2022-12-18T07:08:29;44.87;;;13.13;;
29280;SDS011;25048;49.590;11.026;2022-12-18T07:10:57;31.90;;;11.60;;
29280;SDS011;25048;49.590;11.026;2022-12-18T07:13:25;30.50;;;11.70;;
29280;SDS011;25048;49.590;11.026;2022-12-18T07:15:52;36.33;;;13.63;;
29280;SDS011;25048;49.590;11.026;2022-12-18T07:18:20;36.20;;;12.87;;
29280;SDS011;25048;49.590;11.026;2022-12-18T07:20:47;41.00;;;14.90;;
29280;SDS011;25048;49.590;11.026;2022-12-18T07:23:15;43.03;;;12.80;;
29280;SDS011;25048;49.590;11.026;2022-12-18T07:25:42;39.97;;;14.30;;
29280;SDS011;25048;49.590;11.026;2022-12-18T07:28:10;37.87;;;13.90;;
29280;SDS011;25048;49.590;11.026;2022-12-18T07:30:38;42.13;;;14.07;;
29280;SDS011;25048;49.590;11.026;2022-12-18T07:33:05;38.33;;;13.47;;
29280;SDS011;25048;49.590;11.026;2022-12-18T07:35:33;38.77;;;13.10;;
29280;SDS011;25048;49.590;11.026;2022-12-18T07:38:03;41.20;;;14.33;;
29280;SDS011;25048;49.590;11.026;2022-12-18T07:40:31;32.43;;;12.60;;
29280;SDS011;25048;49.590;11.026;2022-12-18T07:42:59;44.03;;;14.40;;
29280;SDS011;25048;49.590;11.026;2022-12-18T07:45:26;40.10;;;13.47;;
29280;SDS011;25048;49.590;11.026;2022-12-18T07:47:55;36.00;;;13.53;;
29280;SDS011;25048;49.590;11.026;2022-12-18T07:50:23;33.93;;;12.70;;
29280;SDS011;25048;49.590;11.026;2022-12-18T07:52:50;37.27;;;13.60;;
29280;SDS011;25048;49.590;11.026;2022-12-18T07:55:18;37.13;;;12.53;;
29280;SDS011;25048;49.590;11.026;2022-12-18T07:57:45;43.40;;;13.90;;
29280;SDS011;25048;49.590;11.026;2022-12-18T08:00:13;38.70;;;13.73;;
29280;SDS011;25048;49.590;11.026;2022-12-18T08:02:42;43.33;;;15.63;;
29280;SDS011;25048;49.590;11.026;2022-12-18T08:05:09;38.97;;;14.83;;
29280;SDS011;25048;49.590;11.026;2022-12-18T08:07:37;32.77;;;11.63;;
29280;SDS011;25048;49.590;11.026;2022-12-18T08:10:04;36.07;;;13.73;;
29280;SDS011;25048;49.590;11.026;2022-12-18T08:12:33;36.90;;;14.40;;
29280;SDS011;25048;49.590;11.026;2022-12-18T08:15:00;37.00;;;13.50;;
29280;SDS011;25048;49.590;11.026;2022-12-18T08:17:28;37.80;;;12.77;;
29280;SDS011;25048;49.590;11.026;2022-12-18T08:19:55;42.40;;;13.33;;
29280;SDS011;25048;49.590;11.026;2022-12-18T08:22:23;43.50;;;15.93;;
29280;SDS011;25048;49.590;11.026;2022-12-18T08:24:50;37.53;;;15.23;;
29280;SDS011;25048;49.590;11.026;2022-12-18T08:27:18;40.90;;;13.50;;
29280;SDS011;25048;49.590;11.026;2022-12-18T08:29:45;46.33;;;16.17;;
29280;SDS011;25048;49.590;11.026;2022-12-18T08:32:13;39.27;;;14.10;;
29280;SDS011;25048;49.590;11.026;2022-12-18T08:34:40;42.53;;;14.80;;
29280;SDS011;25048;49.590;11.026;2022-12-18T08:37:08;36.17;;;12.80;;
29280;SDS011;25048;49.590;11.026;2022-12-18T08:39:35;36.77;;;13.50;;
29280;SDS011;25048;49.590;11.026;2022-12-18T08:42:03;40.97;;;13.23;;
29280;SDS011;25048;49.590;11.026;2022-12-18T08:44:48;38.23;;;13.10;;
29280;SDS011;25048;49.590;11.026;2022-12-18T08:47:16;41.03;;;14.30;;
29280;SDS011;25048;49.590;11.026;2022-12-18T08:49:43;42.17;;;15.20;;
29280;SDS011;25048;49.590;11.026;2022-12-18T08:52:13;42.80;;;14.23;;
29280;SDS011;25048;49.590;11.026;2022-12-18T08:54:42;37.43;;;13.33;;
29280;SDS011;25048;49.590;11.026;2022-12-18T08:57:10;36.63;;;14.00;;
29280;SDS011;25048;49.590;11.026;2022-12-18T08:59:37;32.77;;;12.37;;
29280;SDS011;25048;49.590;11.026;2022-12-18T09:02:05;42.87;;;12.83;;
29280;SDS011;25048;49.590;11.026;2022-12-18T09:04:33;41.60;;;12.80;;
29280;SDS011;25048;49.590;11.026;2022-12-18T09:07:00;35.67;;;13.23;;
29280;SDS011;25048;49.590;11.026;2022-12-18T09:09:28;36.37;;;12.50;;
29280;SDS011;25048;49.590;11.026;2022-12-18T09:11:55;37.77;;;13.23;;
29280;SDS011;25048;49.590;11.026;2022-12-18T09:14:23;35.10;;;12.87;;
29280;SDS011;25048;49.590;11.026;2022-12-18T09:16:50;38.73;;;13.80;;
29280;SDS011;25048;49.590;11.026;2022-12-18T09:19:18;41.27;;;14.50;;
29280;SDS011;25048;49.590;11.026;2022-12-18T09:21:45;30.97;;;11.00;;
29280;SDS011;25048;49.590;11.026;2022-12-18T09:24:13;48.37;;;14.67;;
29280;SDS011;25048;49.590;11.026;2022-12-18T09:26:41;43.03;;;14.13;;
29280;SDS011;25048;49.590;11.026;2022-12-18T09:29:10;34.23;;;12.03;;
29280;SDS011;25048;49.590;11.026;2022-12-18T09:31:37;33.57;;;13.03;;
29280;SDS011;25048;49.590;11.026;2022-12-18T09:34:05;37.37;;;13.03;;
29280;SDS011;25048;49.590;11.026;2022-12-18T09:36:33;35.97;;;13.03;;
29280;SDS011;25048;49.590;11.026;2022-12-18T09:39:01;34.23;;;11.80;;
29280;SDS011;25048;49.590;11.026;2022-12-18T09:44:21;36.10;;;12.10;;
29280;SDS011;25048;49.590;11.026;2022-12-18T09:47:13;31.57;;;12.33;;
29280;SDS011;25048;49.590;11.026;2022-12-18T09:49:58;33.83;;;11.23;;
29280;SDS011;25048;49.590;11.026;2022-12-18T09:52:32;33.50;;;11.70;;
29280;SDS011;25048;49.590;11.026;2022-12-18T09:55:22;29.57;;;9.73;;
29280;SDS011;25048;49.590;11.026;2022-12-18T09:57:47;28.10;;;10.60;;
29280;SDS011;25048;49.590;11.026;2022-12-18T10:00:18;32.17;;;10.73;;
29280;SDS011;25048;49.590;11.026;2022-12-18T10:02:47;41.13;;;10.23;;
29280;SDS011;25048;49.590;11.026;2022-12-18T10:05:17;33.17;;;11.13;;
29280;SDS011;25048;49.590;11.026;2022-12-18T10:08:06;30.30;;;9.43;;
29280;SDS011;25048;49.590;11.026;2022-12-18T10:13:36;33.27;;;11.17;;
29280;SDS011;25048;49.590;11.026;2022-12-18T10:16:15;36.20;;;10.73;;
29280;SDS011;25048;49.590;11.026;2022-12-18T10:19:06;32.33;;;11.83;;
29280;SDS011;25048;49.590;11.026;2022-12-18T10:21:34;38.77;;;12.13;;
29280;SDS011;25048;49.590;11.026;2022-12-18T10:24:08;24.70;;;9.83;;
29280;SDS011;25048;49.590;11.026;2022-12-18T10:26:33;30.50;;;12.07;;
29280;SDS011;25048;49.590;11.026;2022-12-18T10:29:03;25.87;;;9.57;;
29280;SDS011;25048;49.590;11.026;2022-12-18T10:31:32;34.40;;;11.80;;
29280;SDS011;25048;49.590;11.026;2022-12-18T10:33:59;30.57;;;11.30;;
29280;SDS011;25048;49.590;11.026;2022-12-18T10:36:27;32.87;;;11.40;;
29280;SDS011;25048;49.590;11.026;2022-12-18T10:39:06;37.50;;;12.87;;
29280;SDS011;25048;49.590;11.026;2022-12-18T10:41:42;30.57;;;11.33;;
29280;SDS011;25048;49.590;11.026;2022-12-18T10:44:11;27.83;;;11.00;;
29280;SDS011;25048;49.590;11.026;2022-12-18T10:46:42;24.83;;;8.50;;
29280;SDS011;25048;49.590;11.026;2022-12-18T10:49:22;30.83;;;10.93;;
29280;SDS011;25048;49.590;11.026;2022-12-18T10:52:11;39.27;;;12.50;;
29280;SDS011;25048;49.590;11.026;2022-12-18T10:54:35;33.23;;;11.20;;
29280;SDS011;25048;49.590;11.026;2022-12-18T10:57:14;38.17;;;12.57;;
29280;SDS011;25048;49.590;11.026;2022-12-18T10:59:53;29.93;;;10.97;;
29280;SDS011;25048;49.590;11.026;2022-12-18T11:02:35;28.97;;;11.50;;
29280;SDS011;25048;49.590;11.026;2022-12-18T11:08:00;30.37;;;10.13;;
29280;SDS011;25048;49.590;11.026;2022-12-18T11:10:35;28.23;;;10.73;;
29280;SDS011;25048;49.590;11.026;2022-12-18T11:13:16;24.50;;;9.07;;
29280;SDS011;25048;49.590;11.026;2022-12-18T11:15:40;27.37;;;10.47;;
29280;SDS011;25048;49.590;11.026;2022-12-18T11:20:54;26.47;;;9.90;;
29280;SDS011;25048;49.590;11.026;2022-12-18T11:23:24;26.23;;;9.60;;
29280;SDS011;25048;49.590;11.026;2022-12-18T11:25:59;27.43;;;10.37;;
29280;SDS011;25048;49.590;11.026;2022-12-18T11:28:37;25.77;;;10.70;;
29280;SDS011;25048;49.590;11.026;2022-12-18T11:34:04;30.60;;;10.93;;
29280;SDS011;25048;49.590;11.026;2022-12-18T11:36:45;22.60;;;8.53;;
29280;SDS011;25048;49.590;11.026;2022-12-18T11:39:23;31.80;;;9.83;;
29280;SDS011;25048;49.590;11.026;2022-12-18T11:41:55;29.67;;;10.63;;
29280;SDS011;25048;49.590;11.026;2022-12-18T11:44:53;23.57;;;9.33;;
29280;SDS011;25048;49.590;11.026;2022-12-18T11:47:42;22.57;;;8.20;;
29280;SDS011;25048;49.590;11.026;2022-12-18T11:50:26;25.60;;;9.20;;
29280;SDS011;25048;49.590;11.026;2022-12-18T11:53:04;22.83;;;7.83;;
29280;SDS011;25048;49.590;11.026;2022-12-18T12:01:17;27.23;;;9.57;;
29280;SDS011;25048;49.590;11.026;2022-12-18T12:03:59;25.50;;;9.60;;
29280;SDS011;25048;49.590;11.026;2022-12-18T12:09:50;26.27;;;10.00;;
29280;SDS011;25048;49.590;11.026;2022-12-18T12:12:32;26.87;;;9.67;;
29280;SDS011;25048;49.590;11.026;2022-12-18T12:15:10;23.63;;;9.17;;
29280;SDS011;25048;49.590;11.026;2022-12-18T12:17:38;27.20;;;9.93;;
29280;SDS011;25048;49.590;11.026;2022-12-18T12:20:26;29.20;;;9.93;;
29280;SDS011;25048;49.590;11.026;2022-12-18T12:23:02;24.23;;;9.20;;
29280;SDS011;25048;49.590;11.026;2022-12-18T12:25:37;27.43;;;9.97;;
29280;SDS011;25048;49.590;11.026;2022-12-18T12:28:28;25.83;;;9.77;;
29280;SDS011;25048;49.590;11.026;2022-12-18T12:31:15;28.37;;;10.43;;
29280;SDS011;25048;49.590;11.026;2022-12-18T12:34:12;26.87;;;10.53;;
29280;SDS011;25048;49.590;11.026;2022-12-18T12:37:28;26.30;;;9.73;;
29280;SDS011;25048;49.590;11.026;2022-12-18T12:39:20;24.57;;;9.83;;
29280;SDS011;25048;49.590;11.026;2022-12-18T12:41:49;30.70;;;11.37;;
29280;SDS011;25048;49.590;11.026;2022-12-18T12:44:37;24.40;;;9.47;;
29280;SDS011;25048;49.590;11.026;2022-12-18T12:47:27;27.13;;;9.83;;
29280;SDS011;25048;49.590;11.026;2022-12-18T12:49:43;31.43;;;10.63;;
29280;SDS011;25048;49.590;11.026;2022-12-18T12:55:00;25.03;;;9.60;;
29280;SDS011;25048;49.590;11.026;2022-12-18T12:57:33;23.07;;;8.43;;
29280;SDS011;25048;49.590;11.026;2022-12-18T13:00:05;26.77;;;8.40;;
29280;SDS011;25048;49.590;11.026;2022-12-18T13:02:39;24.93;;;8.73;;
29280;SDS011;25048;49.590;11.026;2022-12-18T13:07:51;23.83;;;9.20;;
29280;SDS011;25048;49.590;11.026;2022-12-18T13:13:08;27.57;;;10.37;;
29280;SDS011;25048;49.590;11.026;2022-12-18T13:15:39;25.83;;;9.00;;
29280;SDS011;25048;49.590;11.026;2022-12-18T13:18:14;26.20;;;10.47;;
29280;SDS011;25048;49.590;11.026;2022-12-18T13:20:50;24.57;;;8.90;;
29280;SDS011;25048;49.590;11.026;2022-12-18T13:23:26;23.73;;;9.07;;
29280;SDS011;25048;49.590;11.026;2022-12-18T13:36:47;22.27;;;10.07;;
29280;SDS011;25048;49.590;11.026;2022-12-18T13:41:49;22.90;;;9.00;;
29280;SDS011;25048;49.590;11.026;2022-12-18T13:44:34;18.97;;;7.67;;
29280;SDS011;25048;49.590;11.026;2022-12-18T13:47:24;20.97;;;8.83;;
29280;SDS011;25048;49.590;11.026;2022-12-18T13:49:54;22.50;;;8.67;;
29280;SDS011;25048;49.590;11.026;2022-12-18T13:52:26;20.43;;;8.47;;
29280;SDS011;25048;49.590;11.026;2022-12-18T13:54:56;20.40;;;7.70;;
29280;SDS011;25048;49.590;11.026;2022-12-18T13:57:29;22.73;;;8.73;;
29280;SDS011;25048;49.590;11.026;2022-12-18T14:00:14;22.20;;;8.50;;
29280;SDS011;25048;49.590;11.026;2022-12-18T14:02:45;19.30;;;7.77;;
29280;SDS011;25048;49.590;11.026;2022-12-18T14:05:26;22.40;;;7.83;;
29280;SDS011;25048;49.590;11.026;2022-12-18T14:08:00;21.67;;;8.07;;
29280;SDS011;25048;49.590;11.026;2022-12-18T14:10:29;18.20;;;8.07;;
29280;SDS011;25048;49.590;11.026;2022-12-18T14:12:56;21.50;;;8.23;;
29280;SDS011;25048;49.590;11.026;2022-12-18T14:15:31;13.57;;;5.83;;
29280;SDS011;25048;49.590;11.026;2022-12-18T14:18:14;24.70;;;9.57;;
29280;SDS011;25048;49.590;11.026;2022-12-18T14:20:50;18.87;;;8.17;;
29280;SDS011;25048;49.590;11.026;2022-12-18T14:23:41;24.23;;;10.03;;
29280;SDS011;25048;49.590;11.026;2022-12-18T14:28:52;22.03;;;9.63;;
29280;SDS011;25048;49.590;11.026;2022-12-18T14:31:23;19.63;;;8.07;;
29280;SDS011;25048;49.590;11.026;2022-12-18T14:33:52;21.80;;;8.40;;
29280;SDS011;25048;49.590;11.026;2022-12-18T14:36:22;25.93;;;10.17;;
29280;SDS011;25048;49.590;11.026;2022-12-18T14:38:57;20.13;;;8.67;;
29280;SDS011;25048;49.590;11.026;2022-12-18T14:41:21;20.07;;;8.87;;
29280;SDS011;25048;49.590;11.026;2022-12-18T14:43:50;22.43;;;9.37;;
29280;SDS011;25048;49.590;11.026;2022-12-18T14:49:17;22.43;;;9.13;;
29280;SDS011;25048;49.590;11.026;2022-12-18T14:51:59;24.57;;;10.47;;
29280;SDS011;25048;49.590;11.026;2022-12-18T14:54:24;29.20;;;8.73;;
29280;SDS011;25048;49.590;11.026;2022-12-18T14:57:06;25.03;;;10.47;;
29280;SDS011;25048;49.590;11.026;2022-12-18T14:59:47;27.52;;;11.20;;
29280;SDS011;25048;49.590;11.026;2022-12-18T15:02:18;26.93;;;10.03;;
29280;SDS011;25048;49.590;11.026;2022-12-18T15:05:01;26.00;;;9.43;;
29280;SDS011;25048;49.590;11.026;2022-12-18T15:07:47;27.20;;;11.20;;
29280;SDS011;25048;49.590;11.026;2022-12-18T15:10:17;28.57;;;10.70;;
29280;SDS011;25048;49.590;11.026;2022-12-18T15:13:05;26.80;;;10.50;;
29280;SDS011;25048;49.590;11.026;2022-12-18T15:23:24;29.50;;;10.70;;
29280;SDS011;25048;49.590;11.026;2022-12-18T15:26:00;28.17;;;11.53;;
29280;SDS011;25048;49.590;11.026;2022-12-18T15:28:43;25.93;;;10.93;;
29280;SDS011;25048;49.590;11.026;2022-12-18T15:33:41;29.03;;;10.43;;
29280;SDS011;25048;49.590;11.026;2022-12-18T15:36:13;33.27;;;12.03;;
29280;SDS011;25048;49.590;11.026;2022-12-18T15:38:52;27.07;;;9.53;;
29280;SDS011;25048;49.590;11.026;2022-12-18T15:41:21;26.13;;;10.00;;
29280;SDS011;25048;49.590;11.026;2022-12-18T15:43:50;24.03;;;10.03;;
29280;SDS011;25048;49.590;11.026;2022-12-18T15:46:22;21.40;;;9.40;;
29280;SDS011;25048;49.590;11.026;2022-12-18T15:48:55;26.13;;;9.37;;
29280;SDS011;25048;49.590;11.026;2022-12-18T15:51:24;22.60;;;9.00;;
29280;SDS011;25048;49.590;11.026;2022-12-18T15:53:55;23.93;;;9.47;;
29280;SDS011;25048;49.590;11.026;2022-12-18T15:56:25;26.83;;;11.30;;
29280;SDS011;25048;49.590;11.026;2022-12-18T15:59:11;27.93;;;11.43;;
29280;SDS011;25048;49.590;11.026;2022-12-18T16:01:41;36.07;;;11.63;;
29280;SDS011;25048;49.590;11.026;2022-12-18T16:04:16;30.03;;;11.47;;